createdAt,value
2023-07-06T00:01:25.322Z,3.10
2023-07-06T00:03:52.795Z,2.78
2023-07-06T00:06:19.726Z,2.55
2023-07-06T00:08:46.510Z,2.83
2023-07-06T00:11:13.473Z,2.85
2023-07-06T00:13:40.776Z,3.10
2023-07-06T00:16:08.104Z,2.75
2023-07-06T00:18:35.264Z,2.90
2023-07-06T00:21:02.359Z,2.53
2023-07-06T00:23:29.485Z,2.30
2023-07-06T00:25:57.052Z,2.20
2023-07-06T00:28:29.557Z,3.25
2023-07-06T00:30:58.860Z,2.38
2023-07-06T00:33:27.490Z,2.65
2023-07-06T00:35:54.996Z,2.80
2023-07-06T00:38:23.274Z,2.42
2023-07-06T00:40:57.327Z,2.45
2023-07-06T00:43:29.576Z,2.85
2023-07-06T00:46:04.604Z,2.78
2023-07-06T00:48:36.777Z,2.63
2023-07-06T00:51:05.866Z,2.65
2023-07-06T00:53:34.580Z,2.53
2023-07-06T00:56:02.542Z,2.63
2023-07-06T00:58:33.139Z,2.42
2023-07-06T01:04:31.966Z,2.30
2023-07-06T01:06:59.150Z,2.83
2023-07-06T01:09:29.092Z,3.00
2023-07-06T01:11:56.797Z,2.50
2023-07-06T01:14:23.937Z,2.63
2023-07-06T01:17:04.385Z,2.10
2023-07-06T01:19:43.678Z,2.50
2023-07-06T01:22:36.808Z,2.80
2023-07-06T01:25:20.722Z,2.40
2023-07-06T01:27:51.205Z,2.95
2023-07-06T01:30:33.246Z,2.03
2023-07-06T01:34:04.984Z,2.40
2023-07-06T01:36:50.974Z,2.60
2023-07-06T01:39:20.253Z,3.00
2023-07-06T01:41:48.499Z,2.67
2023-07-06T01:44:16.519Z,3.03
2023-07-06T01:46:55.105Z,2.58
2023-07-06T01:49:23.515Z,2.72
2023-07-06T01:52:04.788Z,2.33
2023-07-06T01:54:55.554Z,2.20
2023-07-06T01:57:26.609Z,2.08
2023-07-06T01:59:56.263Z,2.67
2023-07-06T02:02:25.088Z,2.60
2023-07-06T02:04:54.702Z,2.22
2023-07-06T02:07:22.010Z,2.47
2023-07-06T02:09:52.636Z,2.30
2023-07-06T02:12:20.706Z,2.75
2023-07-06T02:14:49.713Z,2.70
2023-07-06T02:17:16.994Z,2.85
2023-07-06T02:19:44.467Z,2.13
2023-07-06T02:22:12.254Z,2.47
2023-07-06T02:24:39.974Z,2.08
2023-07-06T02:27:07.393Z,2.70
2023-07-06T02:29:35.446Z,2.70
2023-07-06T02:32:03.998Z,2.20
2023-07-06T02:34:31.593Z,2.53
2023-07-06T02:36:59.202Z,2.55
2023-07-06T02:39:26.848Z,2.25
2023-07-06T02:41:55.685Z,2.75
2023-07-06T02:44:23.954Z,2.45
2023-07-06T02:46:51.851Z,2.90
2023-07-06T02:49:19.073Z,2.80
2023-07-06T02:51:47.847Z,3.33
2023-07-06T02:54:16.847Z,3.20
2023-07-06T02:56:44.534Z,2.97
2023-07-06T02:59:11.956Z,3.40
2023-07-06T03:01:39.625Z,2.88
2023-07-06T03:04:10.768Z,2.40
2023-07-06T03:06:41.235Z,2.90
2023-07-06T03:09:11.274Z,2.40
2023-07-06T03:11:38.708Z,2.78
2023-07-06T03:14:05.908Z,2.85
2023-07-06T03:16:41.378Z,3.20
2023-07-06T03:19:10.785Z,2.40
2023-07-06T03:21:41.273Z,2.38
2023-07-06T03:24:09.163Z,2.60
2023-07-06T03:26:38.449Z,3.33
2023-07-06T03:29:06.387Z,2.88
2023-07-06T03:31:34.384Z,2.83
2023-07-06T03:34:02.201Z,2.90
2023-07-06T03:36:30.029Z,2.63
2023-07-06T03:38:58.608Z,2.63
2023-07-06T03:41:25.784Z,2.95
2023-07-06T03:43:57.977Z,3.13
2023-07-06T03:46:33.618Z,3.72
2023-07-06T03:49:02.424Z,4.28
2023-07-06T03:51:29.747Z,2.83
2023-07-06T03:53:57.491Z,3.65
2023-07-06T03:56:28.774Z,2.13
2023-07-06T03:58:57.946Z,2.90
2023-07-06T04:01:26.075Z,3.20
2023-07-06T04:03:54.084Z,3.22
2023-07-06T04:06:22.868Z,3.63
2023-07-06T04:08:50.691Z,3.17
2023-07-06T04:11:18.486Z,3.33
2023-07-06T04:13:45.876Z,3.88
2023-07-06T04:16:20.573Z,3.20
2023-07-06T04:18:47.990Z,3.88
2023-07-06T04:21:16.336Z,4.13
2023-07-06T04:23:44.964Z,3.75
2023-07-06T04:26:12.612Z,3.67
2023-07-06T04:28:41.964Z,3.92
2023-07-06T04:31:10.474Z,3.70
2023-07-06T04:33:37.771Z,4.65
2023-07-06T04:36:05.035Z,3.97
2023-07-06T04:38:32.433Z,3.70
2023-07-06T04:41:01.359Z,4.55
2023-07-06T04:43:28.661Z,4.07
2023-07-06T04:45:57.384Z,4.60
2023-07-06T04:48:26.075Z,4.65
2023-07-06T04:50:56.187Z,4.60
2023-07-06T04:53:25.345Z,4.95
2023-07-06T04:55:52.687Z,5.30
2023-07-06T04:58:20.067Z,5.20
2023-07-06T05:00:47.492Z,4.40
2023-07-06T05:03:14.923Z,5.00
2023-07-06T05:05:43.647Z,4.60
2023-07-06T05:08:12.490Z,5.50
2023-07-06T05:10:40.358Z,5.72
2023-07-06T05:13:08.061Z,6.10
2023-07-06T05:15:37.749Z,6.68
2023-07-06T05:18:05.318Z,5.90
2023-07-06T05:20:32.958Z,6.47
2023-07-06T05:23:00.397Z,6.88
2023-07-06T05:25:28.297Z,6.78
2023-07-06T05:27:56.558Z,6.90
2023-07-06T05:30:27.380Z,6.65
2023-07-06T05:32:55.339Z,6.53
2023-07-06T05:35:24.361Z,6.03
2023-07-06T05:37:52.699Z,7.20
2023-07-06T05:40:20.325Z,6.78
2023-07-06T05:42:47.543Z,6.90
2023-07-06T05:45:15.067Z,7.82
2023-07-06T05:47:42.573Z,8.00
2023-07-06T05:50:10.078Z,7.57
2023-07-06T05:52:37.462Z,9.10
2023-07-06T05:55:05.216Z,7.55
2023-07-06T05:57:33.323Z,8.55
2023-07-06T06:00:00.739Z,8.75
2023-07-06T06:02:29.362Z,7.35
2023-07-06T06:04:56.411Z,8.48
2023-07-06T06:07:23.673Z,9.23
2023-07-06T06:09:50.990Z,8.73
2023-07-06T06:12:22.398Z,8.60
2023-07-06T06:14:51.873Z,8.90
2023-07-06T06:17:20.393Z,8.68
2023-07-06T06:19:51.413Z,9.15
2023-07-06T06:22:19.944Z,9.23
2023-07-06T06:24:47.598Z,9.40
2023-07-06T06:27:16.140Z,8.73
2023-07-06T06:29:43.679Z,9.20
2023-07-06T06:32:11.692Z,9.13
2023-07-06T06:34:40.173Z,9.55
2023-07-06T06:37:07.658Z,9.13
2023-07-06T06:39:35.945Z,9.93
2023-07-06T06:42:05.519Z,9.60
2023-07-06T06:44:34.258Z,8.85
2023-07-06T06:47:04.812Z,8.80
2023-07-06T06:49:34.737Z,8.35
2023-07-06T06:52:06.080Z,8.00
2023-07-06T06:54:33.626Z,9.27
2023-07-06T06:57:01.518Z,9.25
2023-07-06T06:59:28.705Z,8.55
2023-07-06T07:01:56.299Z,9.27
2023-07-06T07:04:23.509Z,8.85
2023-07-06T07:06:51.248Z,9.13
2023-07-06T07:09:19.359Z,9.00
2023-07-06T07:11:46.592Z,8.48
2023-07-06T07:14:17.017Z,9.00
2023-07-06T07:16:45.497Z,9.50
2023-07-06T07:19:12.785Z,9.02
2023-07-06T07:21:40.368Z,9.30
2023-07-06T07:24:07.585Z,8.27
2023-07-06T07:26:34.879Z,8.90
2023-07-06T07:29:04.059Z,8.73
2023-07-06T07:31:31.497Z,8.45
2023-07-06T07:33:58.852Z,9.05
2023-07-06T07:36:26.290Z,8.18
2023-07-06T07:38:57.984Z,9.02
2023-07-06T07:41:27.146Z,8.02
2023-07-06T07:43:54.846Z,9.05
2023-07-06T07:46:22.419Z,9.07
2023-07-06T07:48:51.315Z,9.15
2023-07-06T07:51:23.561Z,7.93
2023-07-06T07:53:51.276Z,7.78
2023-07-06T07:56:19.274Z,8.18
2023-07-06T07:58:50.209Z,8.90
2023-07-06T08:01:18.801Z,8.40
2023-07-06T08:03:46.201Z,7.22
2023-07-06T08:06:19.716Z,7.07
2023-07-06T08:08:49.071Z,6.90
2023-07-06T08:11:25.044Z,7.03
2023-07-06T08:13:53.376Z,7.72
2023-07-06T08:16:22.087Z,6.47
2023-07-06T08:18:54.476Z,6.55
2023-07-06T08:21:45.526Z,6.88
2023-07-06T08:24:23.432Z,6.63
2023-07-06T08:26:51.143Z,7.00
2023-07-06T08:29:18.570Z,5.78
2023-07-06T08:31:47.282Z,6.18
2023-07-06T08:34:16.241Z,5.53
2023-07-06T08:36:43.818Z,5.90
2023-07-06T08:39:11.468Z,5.78
2023-07-06T08:41:40.936Z,6.32
2023-07-06T08:44:11.179Z,5.47
2023-07-06T08:46:40.428Z,5.85
2023-07-06T08:49:17.460Z,4.53
2023-07-06T08:51:45.457Z,4.40
2023-07-06T08:54:32.786Z,5.35
2023-07-06T08:57:02.024Z,4.90
2023-07-06T08:59:38.187Z,4.00
2023-07-06T09:02:11.599Z,4.68
2023-07-06T09:04:38.750Z,3.40
2023-07-06T09:07:06.117Z,4.57
2023-07-06T09:09:36.293Z,4.32
2023-07-06T09:12:11.356Z,3.70
2023-07-06T09:14:42.518Z,4.10
2023-07-06T09:17:15.768Z,2.83
2023-07-06T09:19:42.680Z,3.75
2023-07-06T09:22:10.720Z,3.60
2023-07-06T09:24:38.127Z,4.13
2023-07-06T09:27:18.248Z,3.20
2023-07-06T09:29:45.926Z,3.13
2023-07-06T09:32:13.028Z,3.65
2023-07-06T09:34:43.163Z,3.78
2023-07-06T09:37:14.167Z,2.88
2023-07-06T09:39:42.311Z,1.77
2023-07-06T09:42:10.821Z,2.00
2023-07-06T09:44:39.034Z,2.40
2023-07-06T09:47:09.624Z,1.83
2023-07-06T09:49:44.097Z,2.28
2023-07-06T09:52:12.235Z,2.25
2023-07-06T09:54:40.214Z,2.40
2023-07-06T09:57:16.461Z,2.20
2023-07-06T09:59:48.103Z,1.98
2023-07-06T10:02:34.175Z,2.45
2023-07-06T10:05:15.860Z,2.10
2023-07-06T10:07:48.449Z,2.10
2023-07-06T10:10:34.957Z,2.38
2023-07-06T10:13:05.725Z,1.92
2023-07-06T10:15:52.477Z,2.60
2023-07-06T10:18:24.964Z,2.42
2023-07-06T10:20:55.305Z,2.10
2023-07-06T10:23:23.093Z,2.33
2023-07-06T10:26:03.902Z,2.00
2023-07-06T10:28:42.555Z,1.58
2023-07-06T10:31:10.516Z,1.60
2023-07-06T10:33:44.941Z,1.50
2023-07-06T10:36:13.465Z,1.50
2023-07-06T10:38:40.923Z,1.63
2023-07-06T10:41:12.001Z,2.00
2023-07-06T10:43:44.341Z,2.43
2023-07-06T10:48:42.296Z,1.98
2023-07-06T10:51:18.687Z,1.73
2023-07-06T10:54:04.649Z,1.55
2023-07-06T10:56:36.129Z,1.48
2023-07-06T10:59:03.331Z,0.80
2023-07-06T11:01:39.310Z,0.82
2023-07-06T11:04:25.970Z,0.80
2023-07-06T11:06:54.605Z,0.82
2023-07-06T11:09:22.479Z,0.70
2023-07-06T11:11:49.443Z,0.70
2023-07-06T11:14:37.981Z,0.60
2023-07-06T11:17:15.576Z,0.88
2023-07-06T11:20:02.454Z,0.80
2023-07-06T11:22:30.785Z,0.90
2023-07-06T11:25:05.523Z,0.50
2023-07-06T11:27:37.961Z,0.50
2023-07-06T11:30:12.141Z,0.60
2023-07-06T11:32:42.966Z,0.60
2023-07-06T11:35:18.358Z,0.60
2023-07-06T11:38:04.130Z,0.70
2023-07-06T11:40:42.673Z,0.45
2023-07-06T11:43:28.841Z,0.60
2023-07-06T11:46:02.318Z,0.55
2023-07-06T11:48:49.467Z,0.52
2023-07-06T11:51:24.740Z,0.50
2023-07-06T11:53:57.949Z,0.80
2023-07-06T11:56:57.523Z,0.70
2023-07-06T11:59:41.732Z,0.60
2023-07-06T12:02:17.067Z,0.40
2023-07-06T12:04:47.426Z,0.57
2023-07-06T12:07:26.839Z,0.60
2023-07-06T12:09:58.159Z,0.47
2023-07-06T12:12:25.725Z,0.55
2023-07-06T12:14:54.067Z,0.57
2023-07-06T12:17:21.341Z,0.50
2023-07-06T12:19:50.422Z,0.57
2023-07-06T12:22:19.470Z,0.50
2023-07-06T12:24:46.967Z,0.50
2023-07-06T12:27:16.052Z,0.40
2023-07-06T12:29:46.910Z,0.60
2023-07-06T12:32:23.615Z,0.50
2023-07-06T12:34:53.800Z,0.30
2023-07-06T12:37:22.513Z,0.40
2023-07-06T12:39:50.784Z,0.55
2023-07-06T12:42:19.131Z,0.60
2023-07-06T12:44:47.601Z,0.50
2023-07-06T12:47:33.795Z,0.52
2023-07-06T12:50:01.690Z,0.50
2023-07-06T12:52:29.726Z,0.60
2023-07-06T12:54:58.339Z,0.50
2023-07-06T12:57:31.231Z,0.60
2023-07-06T12:59:59.799Z,0.60
2023-07-06T13:02:31.547Z,0.50
2023-07-06T13:04:59.286Z,0.40
2023-07-06T13:07:28.188Z,0.50
2023-07-06T13:09:58.698Z,0.57
2023-07-06T13:12:32.970Z,0.50
2023-07-06T13:15:06.279Z,0.50
2023-07-06T13:17:34.420Z,0.50
2023-07-06T13:20:01.557Z,0.50
2023-07-06T13:22:28.799Z,0.45
2023-07-06T13:24:56.110Z,0.40
2023-07-06T13:27:24.755Z,0.60
2023-07-06T13:29:52.626Z,0.57
2023-07-06T13:32:22.078Z,0.60
2023-07-06T13:34:51.540Z,0.73
2023-07-06T13:37:25.976Z,0.40
2023-07-06T13:39:53.013Z,0.50
2023-07-06T13:42:22.675Z,0.60
2023-07-06T13:44:51.155Z,0.68
2023-07-06T13:47:20.193Z,0.60
2023-07-06T13:49:51.026Z,0.50
2023-07-06T13:52:21.352Z,0.60
2023-07-06T13:54:49.037Z,0.80
2023-07-06T13:57:16.162Z,0.60
2023-07-06T13:59:43.972Z,0.60
2023-07-06T14:02:14.438Z,0.80
2023-07-06T14:04:43.568Z,0.80
2023-07-06T14:07:11.834Z,0.68
2023-07-06T14:09:39.177Z,0.80
2023-07-06T14:12:08.760Z,0.60
2023-07-06T14:14:36.229Z,0.77
2023-07-06T14:17:07.066Z,0.60
2023-07-06T14:19:36.620Z,0.65
2023-07-06T14:22:08.770Z,0.75
2023-07-06T14:24:35.989Z,0.70
2023-07-06T14:27:03.231Z,0.93
2023-07-06T14:29:33.078Z,0.73
2023-07-06T14:32:01.930Z,0.80
2023-07-06T14:34:29.387Z,0.77
2023-07-06T14:36:56.756Z,0.82
2023-07-06T14:39:24.399Z,0.80
2023-07-06T14:41:51.460Z,0.90
2023-07-06T14:44:18.832Z,0.70
2023-07-06T14:46:46.267Z,0.70
2023-07-06T14:49:13.822Z,1.00
2023-07-06T14:51:41.719Z,1.00
2023-07-06T14:54:09.341Z,0.98
2023-07-06T14:56:36.616Z,0.70
2023-07-06T14:59:04.402Z,0.70
2023-07-06T15:01:32.241Z,1.63
2023-07-06T15:03:59.810Z,0.88
2023-07-06T15:06:28.684Z,0.77
2023-07-06T15:08:56.687Z,1.13
2023-07-06T15:11:24.031Z,0.80
2023-07-06T15:13:51.665Z,0.93
2023-07-06T15:16:20.721Z,5.57
2023-07-06T15:18:48.938Z,0.93
2023-07-06T15:21:18.720Z,0.90
2023-07-06T15:23:48.155Z,1.13
2023-07-06T15:26:15.196Z,1.23
2023-07-06T15:28:42.269Z,0.90
2023-07-06T15:31:10.213Z,0.98
2023-07-06T15:33:38.728Z,0.90
2023-07-06T15:36:08.863Z,1.10
2023-07-06T15:38:36.050Z,0.80
2023-07-06T15:41:03.511Z,1.20
2023-07-06T15:43:30.774Z,14.50
2023-07-06T15:45:58.171Z,0.80
2023-07-06T15:48:25.607Z,0.82
2023-07-06T15:50:53.673Z,0.80
2023-07-06T15:53:21.604Z,0.80
2023-07-06T15:55:48.876Z,0.77
2023-07-06T15:58:15.874Z,0.80
2023-07-06T16:00:43.479Z,1.48
2023-07-06T16:03:10.850Z,1.02
2023-07-06T16:05:43.530Z,1.20
2023-07-06T16:08:12.227Z,0.90
2023-07-06T16:10:40.198Z,0.93
2023-07-06T16:13:07.689Z,0.73
2023-07-06T16:15:35.092Z,1.20
2023-07-06T16:18:02.212Z,1.10
2023-07-06T16:20:31.062Z,1.10
2023-07-06T16:22:58.585Z,1.20
2023-07-06T16:25:27.673Z,0.90
2023-07-06T16:27:56.415Z,1.20
2023-07-06T16:30:25.453Z,1.30
2023-07-06T16:32:52.641Z,1.30
2023-07-06T16:35:20.563Z,1.25
2023-07-06T16:37:47.902Z,1.00
2023-07-06T16:40:15.335Z,1.05
2023-07-06T16:42:42.542Z,1.08
2023-07-06T16:45:09.722Z,1.42
2023-07-06T16:47:37.120Z,1.23
2023-07-06T16:50:04.604Z,1.40
2023-07-06T16:52:31.687Z,1.30
2023-07-06T16:54:58.733Z,1.30
2023-07-06T16:57:27.830Z,1.33
2023-07-06T16:59:55.010Z,1.80
2023-07-06T17:02:24.584Z,1.10
2023-07-06T17:04:51.604Z,1.23
2023-07-06T17:07:18.775Z,1.73
2023-07-06T17:09:47.131Z,1.50
2023-07-06T17:12:14.101Z,1.40
2023-07-06T17:14:41.717Z,1.35
2023-07-06T17:17:11.635Z,1.08
2023-07-06T17:19:38.689Z,1.35
2023-07-06T17:22:05.772Z,1.60
2023-07-06T17:24:33.164Z,1.50
2023-07-06T17:27:00.333Z,1.63
2023-07-06T17:29:27.286Z,1.65
2023-07-06T17:31:54.701Z,1.67
2023-07-06T17:34:21.958Z,1.52
2023-07-06T17:36:48.933Z,1.48
2023-07-06T17:39:15.997Z,1.83
2023-07-06T17:41:43.247Z,1.98
2023-07-06T17:44:11.160Z,1.73
2023-07-06T17:46:38.697Z,1.70
2023-07-06T17:49:07.686Z,1.50
2023-07-06T17:51:35.025Z,1.92
2023-07-06T17:54:02.261Z,1.33
2023-07-06T17:56:29.450Z,1.45
2023-07-06T17:58:57.512Z,1.60
2023-07-06T18:01:26.088Z,1.75
2023-07-06T18:03:53.931Z,1.98
2023-07-06T18:06:21.262Z,2.03
2023-07-06T18:08:48.484Z,1.90
2023-07-06T18:11:15.472Z,1.38
2023-07-06T18:13:44.687Z,1.83
2023-07-06T18:16:11.959Z,1.60
2023-07-06T18:18:38.975Z,1.30
2023-07-06T18:21:07.202Z,1.65
2023-07-06T18:23:34.186Z,1.55
2023-07-06T18:26:02.458Z,1.67
2023-07-06T18:28:29.618Z,2.20
2023-07-06T18:30:59.130Z,1.77
2023-07-06T18:33:30.073Z,2.05
2023-07-06T18:35:57.052Z,1.40
2023-07-06T18:38:24.316Z,1.40
2023-07-06T18:40:55.349Z,1.77
2023-07-06T18:43:24.649Z,1.90
2023-07-06T18:46:00.880Z,1.50
2023-07-06T18:48:29.357Z,1.67
2023-07-06T18:50:57.417Z,2.08
2023-07-06T18:53:32.556Z,1.40
2023-07-06T18:56:04.873Z,2.10
2023-07-06T18:58:31.999Z,1.52
2023-07-06T19:01:00.589Z,1.70
2023-07-06T19:03:27.948Z,2.10
2023-07-06T19:05:55.157Z,1.83
2023-07-06T19:08:22.272Z,1.50
2023-07-06T19:10:52.660Z,1.95
2023-07-06T19:15:49.170Z,1.60
2023-07-06T19:18:16.469Z,1.70
2023-07-06T19:20:45.029Z,1.60
2023-07-06T19:23:12.254Z,1.55
2023-07-06T19:25:41.748Z,1.90
2023-07-06T19:28:08.818Z,1.60
2023-07-06T19:30:36.466Z,1.45
2023-07-06T19:33:04.199Z,1.27
2023-07-06T19:35:34.640Z,1.65
2023-07-06T19:38:01.597Z,1.60
2023-07-06T19:40:28.703Z,1.58
2023-07-06T19:42:55.584Z,1.63
2023-07-06T19:45:22.953Z,1.77
2023-07-06T19:47:52.204Z,1.58
2023-07-06T19:50:19.665Z,1.40
2023-07-06T19:52:51.578Z,1.67
2023-07-06T19:55:18.719Z,1.80
2023-07-06T19:57:46.008Z,2.83
2023-07-06T20:00:15.003Z,2.60
2023-07-06T20:02:42.688Z,2.90
2023-07-06T20:05:12.407Z,3.35
2023-07-06T20:07:39.800Z,2.58
2023-07-06T20:10:12.299Z,2.60
2023-07-06T20:12:41.992Z,2.50
2023-07-06T20:15:12.699Z,3.20
2023-07-06T20:17:39.864Z,2.58
2023-07-06T20:20:07.205Z,3.03
2023-07-06T20:22:34.112Z,2.90
2023-07-06T20:25:01.526Z,2.40
2023-07-06T20:27:28.800Z,1.98
2023-07-06T20:29:56.059Z,2.22
2023-07-06T20:32:23.634Z,1.60
2023-07-06T20:34:50.986Z,1.88
2023-07-06T20:39:48.991Z,2.10
2023-07-06T20:42:16.719Z,2.20
2023-07-06T20:44:44.417Z,1.92
2023-07-06T20:47:13.676Z,2.20
2023-07-06T20:49:42.850Z,2.20
2023-07-06T20:52:10.119Z,3.00
2023-07-06T20:54:37.478Z,2.90
2023-07-06T20:57:05.014Z,2.83
2023-07-06T20:59:32.317Z,2.67
2023-07-06T21:01:59.651Z,2.63
2023-07-06T21:04:27.201Z,2.58
2023-07-06T21:06:54.805Z,3.33
2023-07-06T21:09:21.780Z,2.97
2023-07-06T21:11:48.924Z,2.97
2023-07-06T21:14:17.622Z,3.53
2023-07-06T21:16:46.449Z,3.33
2023-07-06T21:19:16.855Z,3.53
2023-07-06T21:21:44.246Z,4.28
2023-07-06T21:24:11.834Z,4.43
2023-07-06T21:26:39.119Z,4.25
2023-07-06T21:29:07.467Z,3.85
2023-07-06T21:31:36.170Z,4.20
2023-07-06T21:34:03.967Z,4.95
2023-07-06T21:36:31.226Z,5.00
2023-07-06T21:38:58.649Z,5.70
2023-07-06T21:41:26.352Z,4.88
2023-07-06T21:43:53.674Z,5.03
2023-07-06T21:46:21.742Z,4.63
2023-07-06T21:48:48.933Z,4.18
2023-07-06T21:51:16.086Z,4.13
2023-07-06T21:53:44.054Z,4.05
2023-07-06T21:56:12.820Z,3.97
2023-07-06T21:58:40.054Z,3.60
2023-07-06T22:01:09.189Z,4.18
2023-07-06T22:03:37.908Z,4.72
2023-07-06T22:06:06.814Z,4.05
2023-07-06T22:08:37.268Z,4.00
2023-07-06T22:11:05.520Z,3.92
2023-07-06T22:13:34.907Z,3.28
2023-07-06T22:16:02.081Z,3.75
2023-07-06T22:18:29.959Z,4.30
2023-07-06T22:20:58.434Z,3.97
2023-07-06T22:23:25.823Z,4.47
2023-07-06T22:25:53.204Z,4.43
2023-07-06T22:28:20.714Z,4.47
2023-07-06T22:30:52.610Z,4.65
2023-07-06T22:33:19.958Z,5.03
2023-07-06T22:35:47.924Z,4.68
2023-07-06T22:38:16.220Z,4.50
2023-07-06T22:40:43.306Z,4.88
2023-07-06T22:43:10.417Z,4.38
2023-07-06T22:45:40.642Z,3.70
2023-07-06T22:48:07.885Z,4.18
2023-07-06T22:50:34.930Z,4.65
2023-07-06T22:53:03.016Z,4.28
2023-07-06T22:55:31.597Z,3.42
2023-07-06T22:57:59.033Z,3.60
2023-07-06T23:00:27.145Z,4.22
2023-07-06T23:02:54.724Z,4.50
2023-07-06T23:05:25.231Z,5.13
2023-07-06T23:07:53.345Z,4.85
2023-07-06T23:10:20.857Z,5.55
2023-07-06T23:12:48.319Z,5.05
2023-07-06T23:15:17.480Z,5.43
2023-07-06T23:17:44.917Z,4.68
2023-07-06T23:20:12.931Z,5.72
2023-07-06T23:22:40.772Z,6.15
2023-07-06T23:25:10.245Z,6.18
2023-07-06T23:27:41.170Z,5.28
2023-07-06T23:30:09.528Z,6.30
2023-07-06T23:32:40.001Z,5.47
2023-07-06T23:35:14.918Z,6.10
2023-07-06T23:37:43.170Z,5.80
2023-07-06T23:40:12.989Z,5.57
2023-07-06T23:42:40.884Z,5.70
2023-07-06T23:45:08.891Z,5.50
2023-07-06T23:47:36.251Z,6.53
2023-07-06T23:50:04.565Z,6.85
2023-07-06T23:52:32.072Z,5.75
2023-07-06T23:54:59.548Z,6.38
2023-07-06T23:57:26.971Z,5.97
2023-07-06T23:59:55.686Z,5.40
